Terminal Aerodrome Forecast
Issued by NWS

Current Version | Previous Version | Text Only | Print | Product List | Glossary On
Versions: 1 2 3 4 5 6 7 8 9 10 11 12 13 14 15 16 17 18 19 20 21 22 23 24 25 26 27 28 29 30
812
FTUS41 KOKX 202328
TAFTEB
TAF
KTEB 202328Z 2100/2124 01007KT P6SM FEW250
     FM210300 VRB02KT P6SM FEW250
     FM211300 12004KT P6SM BKN250
     FM211800 17006KT P6SM OVC250=

USA.gov is the U.S. government's official web portal to all federal, state and local government web resources and services.